Time;durP1;ratioP1;P1;durP2;ratioP2;P2;SDS_P1;SDS_P2;PMS_P1;PMS_P2;Temp;Humidity;BMP_temperature;BMP_pressure;BME280_temperature;BME280_humidity;BME280_pressure;Samples;Min_cycle;Max_cycle;Signal;HPM_P1;HPM_P2
2021/11/15 00:01:41;;;;;;;;;;;22.70;49.10;;;;;;1553268;76;719;-60
2021/11/15 00:03:38;;;;;;;;;;;22.70;49.10;;;;;;1558783;75;1674;-59
2021/11/15 00:05:40;;;;;;;;;;;22.70;49.10;;;;;;1554907;75;1136;-59
2021/11/15 00:07:42;;;;;;;;;;;22.70;49.20;;;;;;1554040;76;723;-59
2021/11/15 00:09:44;;;;;;;;;;;22.70;49.20;;;;;;1557163;76;1944;-60
2021/11/15 00:11:46;;;;;;;;;;;22.70;49.20;;;;;;1556852;76;705;-58
2021/11/15 00:13:47;;;;;;;;;;;22.80;49.20;;;;;;1556536;75;716;-60
2021/11/15 00:15:49;;;;;;;;;;;22.80;49.20;;;;;;1554910;76;1192;-59
2021/11/15 00:17:51;;;;;;;;;;;22.80;49.20;;;;;;1552676;76;719;-60
2021/11/15 00:19:53;;;;;;;;;;;22.70;49.20;;;;;;1555159;76;663;-59
2021/11/15 00:21:55;;;;;;;;;;;22.80;49.20;;;;;;1558182;75;742;-57
2021/11/15 00:23:57;;;;;;;;;;;22.70;49.20;;;;;;1554213;75;729;-58
2021/11/15 00:25:59;;;;;;;;;;;22.70;49.20;;;;;;1556728;75;1131;-59
2021/11/15 00:28:01;;;;;;;;;;;22.70;49.20;;;;;;1557075;76;1942;-59
2021/11/15 00:30:04;;;;;;;;;;;22.70;49.20;;;;;;1555511;76;763;-59
2021/11/15 00:32:06;;;;;;;;;;;22.70;49.20;;;;;;1548197;76;760;-59
2021/11/15 00:34:08;;;;;;;;;;;22.70;49.20;;;;;;1557232;76;712;-59
2021/11/15 00:36:10;;;;;;;;;;;22.70;49.20;;;;;;1556536;75;1072;-59
2021/11/15 00:38:11;;;;;;;;;;;22.70;49.20;;;;;;1557374;76;671;-59
2021/11/15 00:40:14;;;;;;;;;;;22.70;49.20;;;;;;1555933;76;738;-59
2021/11/15 00:42:17;;;;;;;;;;;22.70;49.30;;;;;;1556967;76;740;-60
2021/11/15 00:44:19;;;;;;;;;;;22.70;49.20;;;;;;1557349;76;751;-59
2021/11/15 00:46:21;;;;;;;;;;;22.70;49.30;;;;;;1556551;75;1140;-59
2021/11/15 00:48:23;;;;;;;;;;;22.60;49.20;;;;;;1557143;76;1915;-58
2021/11/15 00:50:25;;;;;;;;;;;22.70;49.30;;;;;;1557241;76;641;-58
2021/11/15 00:52:26;;;;;;;;;;;22.70;49.30;;;;;;1556544;76;734;-58
2021/11/15 00:54:28;;;;;;;;;;;22.70;49.40;;;;;;1556612;75;752;-59
2021/11/15 00:56:30;;;;;;;;;;;22.70;49.40;;;;;;1557323;75;1121;-60
2021/11/15 00:58:32;;;;;;;;;;;22.70;49.30;;;;;;1556813;76;788;-57
2021/11/15 01:00:37;;;;;;;;;;;22.70;49.40;;;;;;1557232;76;694;-58
2021/11/15 01:02:38;;;;;;;;;;;22.70;49.50;;;;;;1556909;76;1706;-58
2021/11/15 01:04:40;;;;;;;;;;;22.80;49.50;;;;;;1558221;75;772;-59
2021/11/15 01:06:42;;;;;;;;;;;22.70;49.60;;;;;;1557188;75;1137;-59
2021/11/15 01:08:44;;;;;;;;;;;22.80;49.60;;;;;;1557022;76;1954;-58
2021/11/15 01:10:46;;;;;;;;;;;22.70;49.70;;;;;;1552681;76;798;-58
2021/11/15 01:12:48;;;;;;;;;;;22.70;49.70;;;;;;1556906;75;793;-58
2021/11/15 01:14:50;;;;;;;;;;;22.70;49.80;;;;;;1557108;76;798;-59
2021/11/15 01:16:52;;;;;;;;;;;22.70;49.80;;;;;;1556707;75;1126;-56
2021/11/15 01:18:54;;;;;;;;;;;22.70;49.70;;;;;;1557062;76;771;-59
2021/11/15 01:20:56;;;;;;;;;;;22.80;49.80;;;;;;1556679;76;738;-60
2021/11/15 01:22:58;;;;;;;;;;;22.70;49.80;;;;;;1556510;75;708;-59
2021/11/15 01:25:00;;;;;;;;;;;22.70;49.80;;;;;;1556728;75;784;-58
2021/11/15 01:27:02;;;;;;;;;;;22.80;49.70;;;;;;1554521;75;1092;-58
2021/11/15 01:29:04;;;;;;;;;;;22.70;49.80;;;;;;1555795;76;1950;-58
2021/11/15 01:31:05;;;;;;;;;;;22.80;49.80;;;;;;1547837;75;687;-59
2021/11/15 01:33:07;;;;;;;;;;;22.70;49.90;;;;;;1556234;76;737;-58
2021/11/15 01:35:10;;;;;;;;;;;22.80;49.80;;;;;;1555727;75;758;-57
2021/11/15 01:37:12;;;;;;;;;;;22.80;49.90;;;;;;1557054;76;800;-59
2021/11/15 01:39:14;;;;;;;;;;;22.70;49.90;;;;;;1553923;75;802;-59
2021/11/15 01:41:16;;;;;;;;;;;22.70;50.00;;;;;;1555244;76;715;-56
2021/11/15 01:43:18;;;;;;;;;;;22.70;49.90;;;;;;1555783;76;728;-58
2021/11/15 01:45:23;;;;;;;;;;;22.70;50.00;;;;;;1556770;75;1125;-58
2021/11/15 01:47:24;;;;;;;;;;;22.80;50.00;;;;;;1555765;76;1668;-58
2021/11/15 01:49:26;;;;;;;;;;;22.70;49.90;;;;;;1552032;75;1949;-58
2021/11/15 01:51:28;;;;;;;;;;;22.80;50.00;;;;;;1556985;76;701;-60
2021/11/15 01:53:29;;;;;;;;;;;22.70;50.00;;;;;;1556672;76;737;-60
2021/11/15 01:55:31;;;;;;;;;;;22.70;50.00;;;;;;1556058;75;1112;-59
2021/11/15 01:57:33;;;;;;;;;;;22.80;49.90;;;;;;1557055;76;719;-59
2021/11/15 01:59:35;;;;;;;;;;;22.70;50.00;;;;;;1557231;76;679;-59
2021/11/15 02:01:37;;;;;;;;;;;22.70;50.00;;;;;;1553558;76;744;-58
2021/11/15 02:03:39;;;;;;;;;;;22.80;50.00;;;;;;1555004;75;781;-59
2021/11/15 02:05:41;;;;;;;;;;;22.80;50.00;;;;;;1541562;75;1147;-61
2021/11/15 02:07:42;;;;;;;;;;;22.80;50.00;;;;;;1556762;76;786;-60
2021/11/15 02:09:44;;;;;;;;;;;22.70;50.00;;;;;;1557249;76;1954;-59
2021/11/15 02:11:46;;;;;;;;;;;22.70;50.10;;;;;;1563415;75;780;-57
2021/11/15 02:13:48;;;;;;;;;;;22.70;50.10;;;;;;1556819;76;674;-61
2021/11/15 02:15:51;;;;;;;;;;;22.70;50.10;;;;;;1551415;75;1093;-58
2021/11/15 02:17:53;;;;;;;;;;;22.80;50.10;;;;;;1556908;76;857;-60
2021/11/15 02:19:56;;;;;;;;;;;22.80;50.10;;;;;;1557203;75;910;-59
2021/11/15 02:21:57;;;;;;;;;;;22.70;50.10;;;;;;1545838;76;769;-59
2021/11/15 02:23:59;;;;;;;;;;;22.80;50.20;;;;;;1559459;75;730;-59
2021/11/15 02:26:02;;;;;;;;;;;22.80;50.20;;;;;;1558377;75;1145;-57
2021/11/15 02:28:04;;;;;;;;;;;22.70;50.20;;;;;;1554873;76;742;-58
2021/11/15 02:30:06;;;;;;;;;;;22.70;50.20;;;;;;1557121;76;1934;-58
2021/11/15 02:32:08;;;;;;;;;;;22.80;50.20;;;;;;1558335;75;768;-58
2021/11/15 02:34:11;;;;;;;;;;;22.80;50.20;;;;;;1549475;76;697;-59
2021/11/15 02:36:13;;;;;;;;;;;22.80;50.20;;;;;;1538311;76;1115;-59
2021/11/15 02:38:15;;;;;;;;;;;22.80;50.20;;;;;;1548421;76;735;-59
2021/11/15 02:40:21;;;;;;;;;;;22.80;50.20;;;;;;1553048;75;808;-60
2021/11/15 02:42:22;;;;;;;;;;;22.80;50.20;;;;;;1556804;76;1101;-58
2021/11/15 02:44:26;;;;;;;;;;;22.80;50.20;;;;;;1566354;74;220940;-69
2021/11/15 02:46:28;;;;;;;;;;;22.70;50.20;;;;;;1536232;76;1065;-69
2021/11/15 02:48:30;;;;;;;;;;;22.70;50.20;;;;;;1513950;77;676;-70
2021/11/15 02:50:32;;;;;;;;;;;22.80;50.20;;;;;;1523899;76;1912;-69
2021/11/15 02:52:34;;;;;;;;;;;22.80;50.20;;;;;;1518498;77;719;-69
2021/11/15 02:54:36;;;;;;;;;;;22.80;50.20;;;;;;1563215;74;1175;-68
2021/11/15 02:56:41;;;;;;;;;;;22.80;50.20;;;;;;1561979;74;742;-68
2021/11/15 02:58:43;;;;;;;;;;;22.80;50.20;;;;;;1552672;74;687;-69
2021/11/15 03:00:49;;;;;;;;;;;22.70;50.20;;;;;;1566829;74;671;-70
2021/11/15 03:02:52;;;;;;;;;;;22.70;50.20;;;;;;1564377;75;1141;-73
2021/11/15 03:04:53;;;;;;;;;;;22.80;50.20;;;;;;1596881;73;791;-68
2021/11/15 03:06:55;;;;;;;;;;;22.80;50.20;;;;;;1589319;73;816;-68
2021/11/15 03:08:57;;;;;;;;;;;22.80;50.20;;;;;;1577454;74;1926;-69
2021/11/15 03:11:00;;;;;;;;;;;22.80;50.30;;;;;;1559201;75;910;-69
2021/11/15 03:13:01;;;;;;;;;;;22.80;50.30;;;;;;1566990;74;1179;-70
2021/11/15 03:15:04;;;;;;;;;;;22.70;50.30;;;;;;1559068;74;781;-70
2021/11/15 03:17:06;;;;;;;;;;;22.80;50.30;;;;;;1578312;74;747;-68
2021/11/15 03:19:08;;;;;;;;;;;22.70;50.40;;;;;;1594659;73;721;-69
2021/11/15 03:21:11;;;;;;;;;;;22.70;50.30;;;;;;1590605;73;729;-67
2021/11/15 03:23:15;;;;;;;;;;;22.70;50.30;;;;;;1585707;74;1136;-68
2021/11/15 03:25:17;;;;;;;;;;;22.80;50.30;;;;;;1566520;75;1727;-67
2021/11/15 03:27:19;;;;;;;;;;;22.70;50.30;;;;;;1552371;75;740;-68
2021/11/15 03:29:21;;;;;;;;;;;22.70;50.30;;;;;;1581976;74;1933;-68
2021/11/15 03:31:27;;;;;;;;;;;22.70;50.30;;;;;;1579187;74;706;-69
2021/11/15 03:33:29;;;;;;;;;;;22.70;50.30;;;;;;1575484;74;1140;-70
2021/11/15 03:35:31;;;;;;;;;;;22.70;50.30;;;;;;1584094;73;734;-68
2021/11/15 03:37:34;;;;;;;;;;;22.70;50.20;;;;;;1589500;73;790;-69
2021/11/15 03:39:36;;;;;;;;;;;22.70;50.30;;;;;;1575572;73;680;-68
2021/11/15 03:41:38;;;;;;;;;;;22.70;50.20;;;;;;1576176;74;708;-68
2021/11/15 03:43:40;;;;;;;;;;;22.80;50.20;;;;;;1587534;74;1057;-68
2021/11/15 03:45:42;;;;;;;;;;;22.80;50.20;;;;;;1581801;74;710;-68
2021/11/15 03:47:44;;;;;;;;;;;22.70;50.30;;;;;;1585479;73;777;-68
2021/11/15 03:49:46;;;;;;;;;;;22.80;50.20;;;;;;1572119;74;1927;-68
2021/11/15 03:51:48;;;;;;;;;;;22.70;50.30;;;;;;1575613;73;745;-68
2021/11/15 03:53:50;;;;;;;;;;;22.80;50.20;;;;;;1591825;74;1144;-68
2021/11/15 03:55:52;;;;;;;;;;;22.80;50.30;;;;;;1578148;74;725;-68
2021/11/15 03:57:54;;;;;;;;;;;22.80;50.30;;;;;;1574895;74;745;-68
2021/11/15 03:59:56;;;;;;;;;;;22.80;50.30;;;;;;1556302;75;714;-68
2021/11/15 04:01:57;;;;;;;;;;;22.80;50.30;;;;;;1571143;75;715;-68
2021/11/15 04:04:01;;;;;;;;;;;22.80;50.40;;;;;;1566909;75;1140;-68
2021/11/15 04:06:12;;;;;;;;;;;22.80;50.50;;;;;;1562691;75;725;-69
2021/11/15 04:08:14;;;;;;;;;;;22.80;50.50;;;;;;1568485;75;740;-69
2021/11/15 04:10:29;;;;;;;;;;;22.90;50.60;;;;;;1580023;73;1933;-67
2021/11/15 04:12:31;;;;;;;;;;;22.90;50.50;;;;;;1547915;74;834;-69
2021/11/15 04:14:33;;;;;;;;;;;22.80;50.50;;;;;;1557363;75;1472;-69
2021/11/15 04:16:35;;;;;;;;;;;22.80;50.50;;;;;;1567818;74;746;-69
2021/11/15 04:18:37;;;;;;;;;;;22.80;50.50;;;;;;1590662;74;714;-69
2021/11/15 04:20:39;;;;;;;;;;;22.80;50.40;;;;;;1589270;74;741;-68
2021/11/15 04:22:41;;;;;;;;;;;22.80;50.40;;;;;;1569808;74;1175;-68
2021/11/15 04:24:43;;;;;;;;;;;22.80;50.50;;;;;;1583186;74;715;-68
2021/11/15 04:26:45;;;;;;;;;;;22.80;50.50;;;;;;1585812;74;688;-69
2021/11/15 04:28:47;;;;;;;;;;;22.80;50.40;;;;;;1582906;73;725;-69
2021/11/15 04:30:49;;;;;;;;;;;22.80;50.50;;;;;;1579310;74;1942;-69
2021/11/15 04:32:50;;;;;;;;;;;22.90;50.60;;;;;;1586641;74;1146;-70
2021/11/15 04:34:52;;;;;;;;;;;22.90;50.60;;;;;;1589352;74;706;-69
2021/11/15 04:36:54;;;;;;;;;;;22.90;50.60;;;;;;1583645;73;789;-68
2021/11/15 04:38:56;;;;;;;;;;;22.90;50.60;;;;;;1582944;73;695;-68
2021/11/15 04:40:58;;;;;;;;;;;22.90;50.60;;;;;;1585936;74;801;-67
2021/11/15 04:43:00;;;;;;;;;;;22.80;50.50;;;;;;1576924;74;1137;-68
2021/11/15 04:45:02;;;;;;;;;;;22.90;50.50;;;;;;1585128;73;819;-70
2021/11/15 04:47:04;;;;;;;;;;;22.90;50.50;;;;;;1573307;73;682;-68
2021/11/15 04:49:06;;;;;;;;;;;22.90;50.60;;;;;;1591357;74;572;-69
2021/11/15 04:51:08;;;;;;;;;;;22.80;50.50;;;;;;1587567;73;1924;-68
2021/11/15 04:53:10;;;;;;;;;;;22.80;50.40;;;;;;1577937;74;1165;-69
2021/11/15 04:55:12;;;;;;;;;;;22.90;50.60;;;;;;1583047;73;696;-68
2021/11/15 04:57:15;;;;;;;;;;;22.80;50.50;;;;;;1585046;73;824;-70
2021/11/15 04:59:17;;;;;;;;;;;22.80;50.40;;;;;;1586684;73;761;-69
2021/11/15 05:01:19;;;;;;;;;;;22.90;50.60;;;;;;1578090;74;755;-69
2021/11/15 05:03:21;;;;;;;;;;;22.90;50.50;;;;;;1577005;74;1234;-68
2021/11/15 05:05:23;;;;;;;;;;;22.80;50.40;;;;;;1581010;74;704;-68
2021/11/15 05:07:25;;;;;;;;;;;22.90;50.50;;;;;;1577167;74;673;-69
2021/11/15 05:09:27;;;;;;;;;;;22.80;50.30;;;;;;1573888;74;698;-70
2021/11/15 05:11:29;;;;;;;;;;;22.90;50.40;;;;;;1580446;74;1928;-68
2021/11/15 05:13:31;;;;;;;;;;;22.80;50.30;;;;;;1576771;73;1177;-66
2021/11/15 05:15:32;;;;;;;;;;;22.80;50.40;;;;;;1580168;74;725;-67
2021/11/15 05:17:34;;;;;;;;;;;22.90;50.50;;;;;;1576479;74;717;-68
2021/11/15 05:19:36;;;;;;;;;;;22.80;50.30;;;;;;1579854;73;760;-68
2021/11/15 05:21:38;;;;;;;;;;;22.90;50.50;;;;;;1586381;73;642;-67
2021/11/15 05:23:41;;;;;;;;;;;22.80;50.40;;;;;;1571522;75;1140;-68
2021/11/15 05:25:43;;;;;;;;;;;22.80;50.40;;;;;;1582936;74;650;-66
2021/11/15 05:27:44;;;;;;;;;;;22.80;50.30;;;;;;1575180;75;701;-67
2021/11/15 05:29:46;;;;;;;;;;;22.80;50.50;;;;;;1573243;74;647;-67
2021/11/15 05:31:48;;;;;;;;;;;22.90;50.60;;;;;;1569285;75;744;-70
2021/11/15 05:33:50;;;;;;;;;;;22.80;50.50;;;;;;1576168;74;1149;-68
2021/11/15 05:35:52;;;;;;;;;;;22.80;50.40;;;;;;1567535;75;760;-68
2021/11/15 05:37:54;;;;;;;;;;;22.90;50.60;;;;;;1561776;75;781;-69
2021/11/15 05:39:56;;;;;;;;;;;22.80;50.40;;;;;;1566813;75;781;-69
2021/11/15 05:41:58;;;;;;;;;;;22.90;50.50;;;;;;1574933;74;701;-69
2021/11/15 05:44:00;;;;;;;;;;;22.70;50.40;;;;;;1572938;74;1122;-69
2021/11/15 05:46:02;;;;;;;;;;;22.80;50.40;;;;;;1570210;74;827;-69
2021/11/15 05:48:04;;;;;;;;;;;22.90;50.60;;;;;;1563005;74;705;-69
2021/11/15 05:50:06;;;;;;;;;;;22.80;50.40;;;;;;1553290;74;1915;-69
2021/11/15 05:52:09;;;;;;;;;;;22.80;50.40;;;;;;1571911;75;844;-68
2021/11/15 05:54:11;;;;;;;;;;;22.70;50.50;;;;;;1566386;75;1152;-67
2021/11/15 05:56:13;;;;;;;;;;;22.80;50.50;;;;;;1557182;75;755;-67
2021/11/15 05:58:15;;;;;;;;;;;22.80;50.50;;;;;;1589648;73;725;-68
2021/11/15 06:00:18;;;;;;;;;;;22.80;50.40;;;;;;1575419;73;635;-68
2021/11/15 06:02:20;;;;;;;;;;;22.80;50.40;;;;;;1575926;73;816;-66
2021/11/15 06:04:21;;;;;;;;;;;22.80;50.40;;;;;;1575417;74;1120;-67
2021/11/15 06:06:23;;;;;;;;;;;22.90;50.50;;;;;;1588267;73;726;-67
2021/11/15 06:08:25;;;;;;;;;;;22.80;50.30;;;;;;1582180;74;647;-67
2021/11/15 06:10:27;;;;;;;;;;;22.90;50.50;;;;;;1586841;73;1939;-65
2021/11/15 06:12:29;;;;;;;;;;;22.80;50.40;;;;;;1582680;74;760;-65
2021/11/15 06:14:31;;;;;;;;;;;22.90;50.50;;;;;;1585790;74;1118;-70
2021/11/15 06:16:33;;;;;;;;;;;23.00;50.50;;;;;;1581536;74;785;-70
2021/11/15 06:18:36;;;;;;;;;;;23.00;50.40;;;;;;1584266;73;818;-66
2021/11/15 06:20:38;;;;;;;;;;;23.00;50.30;;;;;;1580136;74;982;-67
2021/11/15 06:22:40;;;;;;;;;;;22.90;50.30;;;;;;1589011;74;1179;-67
2021/11/15 06:24:47;;;;;;;;;;;22.90;50.30;;;;;;1583765;74;783;-66
2021/11/15 06:26:46;;;;;;;;;;;23.00;50.30;;;;;;1579543;74;1572;-72
2021/11/15 06:28:49;;;;;;;;;;;22.90;50.30;;;;;;1583119;74;721;-70
2021/11/15 06:30:51;;;;;;;;;;;22.90;50.30;;;;;;1581702;74;1920;-66
2021/11/15 06:32:53;;;;;;;;;;;22.90;50.20;;;;;;1585574;74;1139;-65
2021/11/15 06:34:57;;;;;;;;;;;22.90;50.20;;;;;;1576233;74;709;-69
2021/11/15 06:36:58;;;;;;;;;;;22.90;50.20;;;;;;1584455;73;1596;-68
2021/11/15 06:39:00;;;;;;;;;;;22.90;50.20;;;;;;1589660;73;768;-66
2021/11/15 06:41:02;;;;;;;;;;;22.90;50.10;;;;;;1577798;74;719;-68
2021/11/15 06:43:04;;;;;;;;;;;22.80;49.90;;;;;;1588806;73;1105;-70
2021/11/15 06:45:06;;;;;;;;;;;22.80;49.90;;;;;;1589173;74;759;-70
2021/11/15 06:47:08;;;;;;;;;;;22.90;50.00;;;;;;1589832;74;716;-70
2021/11/15 06:49:10;;;;;;;;;;;22.70;49.90;;;;;;1576389;74;706;-70
2021/11/15 06:51:12;;;;;;;;;;;22.90;49.90;;;;;;1588520;73;1932;-69
2021/11/15 06:53:14;;;;;;;;;;;22.80;49.80;;;;;;1575394;73;1176;-70
2021/11/15 06:55:17;;;;;;;;;;;22.80;49.70;;;;;;1575464;73;681;-69
2021/11/15 06:57:19;;;;;;;;;;;22.80;49.60;;;;;;1576086;73;716;-70
2021/11/15 06:59:21;;;;;;;;;;;22.80;49.50;;;;;;1591639;73;658;-69
2021/11/15 07:01:23;;;;;;;;;;;22.80;49.40;;;;;;1575937;74;734;-69
2021/11/15 07:03:25;;;;;;;;;;;22.70;49.40;;;;;;1579900;74;1141;-68
2021/11/15 07:05:27;;;;;;;;;;;22.70;49.30;;;;;;1588193;73;727;-69
2021/11/15 07:07:29;;;;;;;;;;;22.80;49.30;;;;;;1581286;74;840;-68
2021/11/15 07:09:31;;;;;;;;;;;22.80;49.20;;;;;;1578701;73;714;-69
2021/11/15 07:11:34;;;;;;;;;;;22.80;49.20;;;;;;1586416;74;1930;-69
2021/11/15 07:13:36;;;;;;;;;;;22.70;49.10;;;;;;1597871;73;1136;-70
2021/11/15 07:15:38;;;;;;;;;;;22.80;49.10;;;;;;1579606;74;699;-70
2021/11/15 07:17:40;;;;;;;;;;;22.70;49.10;;;;;;1583170;74;717;-70
2021/11/15 07:19:42;;;;;;;;;;;22.70;49.00;;;;;;1591126;74;751;-71
2021/11/15 07:21:43;;;;;;;;;;;22.70;48.90;;;;;;1570154;74;715;-69
2021/11/15 07:23:45;;;;;;;;;;;22.60;48.90;;;;;;1564264;75;1249;-73
2021/11/15 07:25:47;;;;;;;;;;;22.70;49.00;;;;;;1563745;74;744;-71
2021/11/15 07:27:50;;;;;;;;;;;22.60;48.90;;;;;;1567348;74;660;-71
2021/11/15 07:29:52;;;;;;;;;;;22.60;48.90;;;;;;1561750;75;695;-71
2021/11/15 07:31:54;;;;;;;;;;;22.70;48.90;;;;;;1557374;75;1907;-72
2021/11/15 07:33:56;;;;;;;;;;;22.60;48.80;;;;;;1565046;75;1145;-71
2021/11/15 07:35:58;;;;;;;;;;;22.60;48.80;;;;;;1562312;75;781;-71
2021/11/15 07:38:00;;;;;;;;;;;22.60;48.80;;;;;;1572594;74;718;-72
2021/11/15 07:40:04;;;;;;;;;;;22.60;48.80;;;;;;1573903;75;735;-70
2021/11/15 07:42:06;;;;;;;;;;;22.60;48.80;;;;;;1569293;75;701;-71
2021/11/15 07:44:07;;;;;;;;;;;22.60;48.70;;;;;;1553741;74;1134;-71
2021/11/15 07:46:09;;;;;;;;;;;22.60;48.70;;;;;;1567353;75;798;-72
2021/11/15 07:48:11;;;;;;;;;;;22.60;48.70;;;;;;1584084;74;700;-71
2021/11/15 07:50:13;;;;;;;;;;;22.60;48.70;;;;;;1583196;74;633;-72
2021/11/15 07:52:18;;;;;;;;;;;22.60;48.70;;;;;;1584719;74;1953;-68
2021/11/15 07:54:20;;;;;;;;;;;22.60;48.60;;;;;;1597911;73;1147;-70
2021/11/15 07:56:22;;;;;;;;;;;22.50;48.70;;;;;;1585912;74;710;-69
2021/11/15 07:58:24;;;;;;;;;;;22.60;48.80;;;;;;1584635;74;735;-70
2021/11/15 08:00:26;;;;;;;;;;;22.60;48.80;;;;;;1584084;74;598;-72
2021/11/15 08:02:28;;;;;;;;;;;22.60;49.00;;;;;;1579168;74;651;-72
2021/11/15 08:04:29;;;;;;;;;;;22.70;49.20;;;;;;1584381;74;1087;-70
2021/11/15 08:06:31;;;;;;;;;;;22.60;49.00;;;;;;1584049;74;723;-68
2021/11/15 08:08:34;;;;;;;;;;;22.60;49.00;;;;;;1582276;74;722;-69
2021/11/15 08:10:36;;;;;;;;;;;22.60;49.00;;;;;;1592115;74;810;-70
2021/11/15 08:12:41;;;;;;;;;;;22.60;49.00;;;;;;1588470;74;1932;-72
2021/11/15 08:14:43;;;;;;;;;;;22.60;49.00;;;;;;1583424;74;650;-71
2021/11/15 08:16:47;;;;;;;;;;;22.60;49.10;;;;;;1588673;74;707;-71
2021/11/15 08:18:49;;;;;;;;;;;22.60;49.10;;;;;;1578172;74;665;-71
2021/11/15 08:20:50;;;;;;;;;;;22.60;49.10;;;;;;1563764;74;679;-72
2021/11/15 08:22:53;;;;;;;;;;;22.60;49.10;;;;;;1585634;74;1131;-70
2021/11/15 08:24:57;;;;;;;;;;;22.60;49.10;;;;;;1569249;73;812;-72
2021/11/15 08:27:02;;;;;;;;;;;22.60;49.10;;;;;;1562678;75;729;-72
2021/11/15 08:29:10;;;;;;;;;;;22.60;49.20;;;;;;1600868;74;740;-71
2021/11/15 08:31:12;;;;;;;;;;;22.60;49.20;;;;;;1562280;74;1920;-67
2021/11/15 08:33:14;;;;;;;;;;;22.60;49.20;;;;;;1581835;74;1131;-71
2021/11/15 08:35:18;;;;;;;;;;;22.60;49.20;;;;;;1557550;74;674;-72
2021/11/15 08:37:20;;;;;;;;;;;22.60;49.20;;;;;;1580783;74;720;-72
2021/11/15 08:39:22;;;;;;;;;;;22.60;49.20;;;;;;1552828;75;729;-74
2021/11/15 08:41:26;;;;;;;;;;;22.60;49.20;;;;;;1557480;75;720;-72
2021/11/15 08:43:27;;;;;;;;;;;22.60;49.20;;;;;;1596356;72;3111;-67
2021/11/15 08:45:30;;;;;;;;;;;22.60;49.20;;;;;;1642789;72;702;-67
2021/11/15 08:47:32;;;;;;;;;;;22.60;49.20;;;;;;1642505;71;735;-67
2021/11/15 08:49:34;;;;;;;;;;;22.60;49.20;;;;;;1650145;71;772;-67
2021/11/15 08:51:36;;;;;;;;;;;22.60;49.30;;;;;;1647830;71;1902;-72
2021/11/15 08:53:38;;;;;;;;;;;22.50;49.30;;;;;;1648185;70;1216;-67
2021/11/15 08:55:40;;;;;;;;;;;22.50;49.30;;;;;;1664177;70;733;-67
2021/11/15 08:57:42;;;;;;;;;;;22.60;49.20;;;;;;1657591;70;800;-67
2021/11/15 08:59:45;;;;;;;;;;;22.60;49.20;;;;;;1629004;72;758;-67
2021/11/15 09:01:47;;;;;;;;;;;22.50;49.20;;;;;;1704694;69;774;-69
2021/11/15 09:03:51;;;;;;;;;;;22.60;49.20;;;;;;1701025;69;1248;-68
2021/11/15 09:05:53;;;;;;;;;;;22.50;49.20;;;;;;1694642;69;686;-68
2021/11/15 09:07:54;;;;;;;;;;;22.60;49.20;;;;;;1694658;69;697;-71
2021/11/15 09:09:56;;;;;;;;;;;22.60;49.20;;;;;;1697310;69;729;-73
2021/11/15 09:11:59;;;;;;;;;;;22.60;49.20;;;;;;1702879;69;1932;-65
2021/11/15 09:14:01;;;;;;;;;;;22.60;49.20;;;;;;1695380;69;1191;-62
2021/11/15 09:16:04;;;;;;;;;;;22.60;49.20;;;;;;1701102;69;782;-64
2021/11/15 09:18:05;;;;;;;;;;;22.60;49.20;;;;;;1705335;69;848;-64
2021/11/15 09:20:08;;;;;;;;;;;22.60;49.20;;;;;;1707572;69;718;-64
2021/11/15 09:22:10;;;;;;;;;;;22.60;49.20;;;;;;1704251;69;727;-64
2021/11/15 09:24:12;;;;;;;;;;;22.60;49.20;;;;;;1702205;69;1126;-64
2021/11/15 09:26:15;;;;;;;;;;;22.60;49.20;;;;;;1704851;69;804;-64
2021/11/15 09:28:17;;;;;;;;;;;22.60;49.20;;;;;;1694872;69;793;-66
2021/11/15 09:30:19;;;;;;;;;;;22.60;49.10;;;;;;1705624;69;843;-67
2021/11/15 09:32:21;;;;;;;;;;;22.60;49.10;;;;;;1709214;69;1925;-64
2021/11/15 09:34:23;;;;;;;;;;;22.50;49.10;;;;;;1704927;69;1134;-65
2021/11/15 09:36:25;;;;;;;;;;;22.60;49.10;;;;;;1695397;69;718;-64
2021/11/15 09:38:28;;;;;;;;;;;22.60;49.10;;;;;;1701685;69;757;-64
2021/11/15 09:40:32;;;;;;;;;;;22.50;49.10;;;;;;1705583;69;727;-65
2021/11/15 09:42:34;;;;;;;;;;;22.60;49.10;;;;;;1705271;69;690;-66
2021/11/15 09:44:36;;;;;;;;;;;22.60;49.10;;;;;;1694762;69;1092;-67
2021/11/15 09:46:38;;;;;;;;;;;22.50;49.10;;;;;;1694397;69;678;-65
2021/11/15 09:48:41;;;;;;;;;;;22.50;49.20;;;;;;1696625;69;758;-64
2021/11/15 09:50:43;;;;;;;;;;;22.50;49.10;;;;;;1710744;69;731;-65
2021/11/15 09:52:46;;;;;;;;;;;22.60;49.10;;;;;;1702535;69;1918;-65
2021/11/15 09:54:48;;;;;;;;;;;22.60;49.10;;;;;;1705607;69;1056;-67
2021/11/15 09:56:50;;;;;;;;;;;22.60;49.10;;;;;;1694493;69;793;-65
2021/11/15 09:58:52;;;;;;;;;;;22.50;49.10;;;;;;1694558;70;681;-64
2021/11/15 10:00:54;;;;;;;;;;;22.60;49.00;;;;;;1707145;69;758;-64
2021/11/15 10:03:01;;;;;;;;;;;22.60;49.10;;;;;;1703952;69;789;-64
2021/11/15 10:04:59;;;;;;;;;;;22.60;49.10;;;;;;1698827;69;1582;-66
2021/11/15 10:07:03;;;;;;;;;;;22.50;49.00;;;;;;1702154;69;564;-65
2021/11/15 10:09:05;;;;;;;;;;;22.60;49.10;;;;;;1695669;69;850;-67
2021/11/15 10:11:07;;;;;;;;;;;22.50;49.00;;;;;;1702966;69;758;-64
2021/11/15 10:13:29;;;;;;;;;;;22.60;49.00;;;;;;1701796;69;1941;-64
2021/11/15 10:15:32;;;;;;;;;;;22.50;49.00;;;;;;1710284;69;795;-65
2021/11/15 10:17:41;;;;;;;;;;;22.60;49.00;;;;;;1703875;69;1940;-64
2021/11/15 10:19:43;;;;;;;;;;;22.60;49.00;;;;;;1704205;69;791;-64
2021/11/15 10:21:55;;;;;;;;;;;22.50;49.00;;;;;;1695869;69;778;-63
2021/11/15 10:23:59;;;;;;;;;;;22.50;49.00;;;;;;1707182;69;1145;-64
2021/11/15 10:26:02;;;;;;;;;;;22.50;49.00;;;;;;1694725;69;928;-65
2021/11/15 10:28:05;;;;;;;;;;;22.50;49.00;;;;;;1658738;70;1175;-65
2021/11/15 10:30:11;;;;;;;;;;;22.50;49.00;;;;;;1694743;69;763;-65
2021/11/15 10:32:38;;;;;;;;;;;22.60;49.00;;;;;;1698379;69;1929;-65
2021/11/15 10:34:28;;;;;;;;;;;22.50;49.10;;;;;;1687355;69;1589;-67
2021/11/15 10:36:46;;;;;;;;;;;22.60;49.00;;;;;;1712541;69;818;-65
2021/11/15 10:38:53;;;;;;;;;;;22.50;49.00;;;;;;1701050;69;722;-64
2021/11/15 10:40:56;;;;;;;;;;;22.50;49.00;;;;;;1714473;69;1672;-65
2021/11/15 10:42:58;;;;;;;;;;;22.50;49.00;;;;;;1698575;69;1950;-64
2021/11/15 10:45:01;;;;;;;;;;;22.50;49.00;;;;;;1694349;69;1147;-65
2021/11/15 10:47:03;;;;;;;;;;;22.50;49.00;;;;;;1694712;69;720;-64
2021/11/15 10:49:07;;;;;;;;;;;22.50;48.90;;;;;;1694663;69;930;-64
2021/11/15 10:51:12;;;;;;;;;;;22.60;48.90;;;;;;1708979;69;691;-64
2021/11/15 10:53:18;;;;;;;;;;;22.50;48.90;;;;;;1706321;69;1947;-65
2021/11/15 10:55:19;;;;;;;;;;;22.50;48.90;;;;;;1720042;69;1716;-67
2021/11/15 10:57:22;;;;;;;;;;;22.50;49.00;;;;;;1694490;70;771;-65
2021/11/15 10:59:24;;;;;;;;;;;22.50;48.90;;;;;;1716858;69;751;-64
2021/11/15 11:01:29;;;;;;;;;;;22.50;48.90;;;;;;1709895;69;904;-65
2021/11/15 11:03:31;;;;;;;;;;;22.60;48.90;;;;;;1695355;69;1104;-64
2021/11/15 11:05:34;;;;;;;;;;;22.50;48.90;;;;;;1694683;69;702;-65
2021/11/15 11:07:36;;;;;;;;;;;22.60;48.90;;;;;;1699680;69;831;-64
2021/11/15 11:09:39;;;;;;;;;;;22.50;48.90;;;;;;1706572;69;743;-64
2021/11/15 11:11:41;;;;;;;;;;;22.50;48.90;;;;;;1703233;69;770;-64
2021/11/15 11:13:45;;;;;;;;;;;22.50;48.90;;;;;;1703243;69;1940;-65
2021/11/15 11:15:48;;;;;;;;;;;22.60;48.90;;;;;;1710054;69;762;-64
2021/11/15 11:17:58;;;;;;;;;;;22.50;48.80;;;;;;1706674;69;720;-64
2021/11/15 11:20:10;;;;;;;;;;;22.50;48.80;;;;;;1706511;69;736;-65
2021/11/15 11:26:21;;;;;;;;;;;22.50;48.70;;;;;;1710531;69;871;-65
2021/11/15 11:28:31;;;;;;;;;;;22.50;48.80;;;;;;1710478;69;709;-65
2021/11/15 11:30:33;;;;;;;;;;;22.50;48.80;;;;;;1714254;69;723;-64
2021/11/15 11:32:35;;;;;;;;;;;22.50;48.80;;;;;;1694730;69;1960;-68
2021/11/15 11:34:37;;;;;;;;;;;22.50;48.80;;;;;;1694777;69;1103;-66
2021/11/15 11:36:39;;;;;;;;;;;22.50;48.80;;;;;;1694367;69;800;-66
2021/11/15 11:38:41;;;;;;;;;;;22.50;48.80;;;;;;1697748;69;789;-67
2021/11/15 11:40:43;;;;;;;;;;;22.50;48.70;;;;;;1699960;69;728;-66
2021/11/15 11:42:45;;;;;;;;;;;22.50;48.80;;;;;;1705991;69;873;-65
2021/11/15 11:44:47;;;;;;;;;;;22.50;48.70;;;;;;1705324;69;1217;-65
2021/11/15 11:46:49;;;;;;;;;;;22.50;48.80;;;;;;1699118;69;794;-67
2021/11/15 11:48:52;;;;;;;;;;;22.50;48.70;;;;;;1704320;69;836;-64
2021/11/15 11:50:54;;;;;;;;;;;22.50;48.80;;;;;;1708430;69;879;-67
2021/11/15 11:53:05;;;;;;;;;;;22.50;48.70;;;;;;1707283;69;1940;-65
2021/11/15 11:55:21;;;;;;;;;;;22.50;48.80;;;;;;1699303;69;788;-65
2021/11/15 11:57:22;;;;;;;;;;;22.50;48.80;;;;;;1699992;69;1528;-65
2021/11/15 11:59:25;;;;;;;;;;;22.50;48.70;;;;;;1702129;69;761;-68
2021/11/15 12:01:27;;;;;;;;;;;22.50;48.70;;;;;;1705006;69;724;-65
2021/11/15 12:03:29;;;;;;;;;;;22.50;48.70;;;;;;1694744;69;1119;-65
2021/11/15 12:05:31;;;;;;;;;;;22.50;48.70;;;;;;1707569;69;806;-66
2021/11/15 12:07:38;;;;;;;;;;;22.50;48.60;;;;;;1703550;69;795;-67
2021/11/15 12:09:47;;;;;;;;;;;22.50;48.70;;;;;;1679103;69;1584;-65
2021/11/15 12:11:56;;;;;;;;;;;22.40;48.60;;;;;;1699448;69;752;-63
2021/11/15 12:13:58;;;;;;;;;;;22.50;48.70;;;;;;1698946;69;1921;-65
2021/11/15 12:16:02;;;;;;;;;;;22.50;48.60;;;;;;1703661;69;727;-65